createdAt,value
2019-06-27T00:02:26.646Z,22.00
2019-06-27T00:06:35.521Z,22.00
2019-06-27T00:10:44.470Z,21.90
2019-06-27T00:14:53.260Z,21.80
2019-06-27T00:19:02.067Z,21.70
2019-06-27T00:23:11.208Z,21.70
2019-06-27T00:27:20.032Z,21.60
2019-06-27T00:31:28.835Z,21.50
2019-06-27T00:35:37.621Z,21.50
2019-06-27T00:39:46.423Z,21.50
2019-06-27T00:43:55.215Z,21.40
2019-06-27T00:48:04.174Z,21.40
2019-06-27T00:52:13.103Z,21.30
2019-06-27T00:56:22.128Z,21.20
2019-06-27T01:00:30.946Z,21.20
2019-06-27T01:04:39.994Z,21.10
2019-06-27T01:08:48.794Z,21.00
2019-06-27T01:12:57.580Z,21.00
2019-06-27T01:17:06.674Z,20.90
2019-06-27T01:21:15.474Z,20.80
2019-06-27T01:25:24.268Z,20.70
2019-06-27T01:29:33.051Z,20.60
2019-06-27T01:33:41.878Z,20.50
2019-06-27T01:37:50.954Z,20.50
2019-06-27T01:41:59.740Z,20.40
2019-06-27T01:46:08.622Z,20.40
2019-06-27T01:50:17.483Z,20.30
2019-06-27T01:54:26.295Z,20.20
2019-06-27T01:58:35.135Z,20.10
2019-06-27T02:02:44.095Z,20.10
2019-06-27T02:06:53.066Z,20.10
2019-06-27T02:11:02.075Z,20.00
2019-06-27T02:15:12.615Z,20.00
2019-06-27T02:19:21.476Z,19.90
2019-06-27T02:23:30.543Z,19.90
2019-06-27T02:27:39.507Z,19.80
2019-06-27T02:31:48.328Z,19.80
2019-06-27T02:35:57.148Z,19.70
2019-06-27T02:40:06.196Z,19.60
2019-06-27T02:44:15.095Z,19.40
2019-06-27T02:48:23.979Z,19.40
2019-06-27T02:52:32.868Z,19.20
2019-06-27T02:56:41.719Z,19.20
2019-06-27T03:00:50.518Z,19.10
2019-06-27T03:04:59.507Z,19.20
2019-06-27T03:09:08.471Z,19.10
2019-06-27T03:13:17.571Z,19.00
2019-06-27T03:17:26.532Z,19.00
2019-06-27T03:21:35.432Z,18.90
2019-06-27T03:25:44.256Z,18.90
2019-06-27T03:29:53.192Z,18.90
2019-06-27T03:34:02.092Z,18.80
2019-06-27T03:38:10.983Z,18.90
2019-06-27T03:42:19.891Z,18.90
2019-06-27T03:46:28.749Z,18.90
2019-06-27T03:50:37.739Z,18.90
2019-06-27T03:54:46.576Z,18.80
2019-06-27T03:59:11.214Z,18.80
2019-06-27T04:03:06.079Z,18.80
2019-06-27T04:07:15.041Z,18.70
2019-06-27T04:11:23.857Z,18.80
2019-06-27T04:15:32.753Z,18.70
2019-06-27T04:19:41.727Z,18.70
2019-06-27T04:23:50.692Z,18.70
2019-06-27T04:28:00.256Z,18.70
2019-06-27T04:32:09.759Z,18.60
2019-06-27T04:36:18.644Z,18.60
2019-06-27T04:40:27.543Z,18.70
2019-06-27T04:44:36.364Z,18.70
2019-06-27T04:48:45.192Z,18.70
2019-06-27T04:52:54.011Z,18.70
2019-06-27T04:57:02.837Z,18.90
2019-06-27T05:01:11.751Z,19.00
2019-06-27T05:05:20.557Z,19.10
2019-06-27T05:09:29.751Z,19.20
2019-06-27T05:13:38.721Z,19.20
2019-06-27T05:17:47.544Z,19.20
2019-06-27T05:21:56.359Z,19.30
2019-06-27T05:26:05.259Z,19.30
2019-06-27T05:30:14.519Z,19.40
2019-06-27T05:34:23.343Z,19.40
2019-06-27T05:38:32.161Z,19.50
2019-06-27T05:42:41.053Z,19.60
2019-06-27T05:46:49.863Z,19.70
2019-06-27T05:50:58.691Z,19.70
2019-06-27T05:55:07.732Z,19.60
2019-06-27T05:59:16.630Z,19.70
2019-06-27T06:03:25.451Z,19.90
2019-06-27T06:07:34.259Z,20.00
2019-06-27T06:11:43.126Z,20.00
2019-06-27T06:15:51.950Z,20.10
2019-06-27T06:20:01.044Z,20.20
2019-06-27T06:24:09.850Z,20.20
2019-06-27T06:28:18.833Z,20.20
2019-06-27T06:32:27.642Z,20.20
2019-06-27T06:36:36.530Z,20.30
2019-06-27T06:40:45.418Z,20.40
2019-06-27T06:44:54.301Z,20.30
2019-06-27T06:49:03.194Z,20.50
2019-06-27T06:53:12.097Z,20.80
2019-06-27T06:57:20.931Z,20.70
2019-06-27T07:01:29.826Z,20.80
2019-06-27T07:05:38.839Z,20.90
2019-06-27T07:09:47.662Z,20.70
2019-06-27T07:13:56.513Z,20.70
2019-06-27T07:18:05.459Z,20.90
2019-06-27T07:22:14.890Z,21.00
2019-06-27T07:26:23.857Z,21.00
2019-06-27T07:30:32.794Z,20.70
2019-06-27T07:34:41.766Z,20.70
2019-06-27T07:38:50.599Z,20.90
2019-06-27T07:42:59.507Z,21.50
2019-06-27T07:47:08.457Z,21.80
2019-06-27T07:51:17.375Z,22.00
2019-06-27T07:55:26.367Z,22.20
2019-06-27T07:59:35.413Z,22.30
2019-06-27T08:03:44.218Z,22.30
2019-06-27T08:07:55.624Z,22.30
2019-06-27T08:12:04.529Z,22.30
2019-06-27T08:16:13.440Z,22.50
2019-06-27T08:20:22.330Z,22.80
2019-06-27T08:24:34.292Z,23.10
2019-06-27T08:28:41.798Z,23.10
2019-06-27T08:32:50.639Z,23.30
2019-06-27T08:36:59.492Z,23.30
2019-06-27T08:41:08.451Z,23.60
2019-06-27T08:45:17.415Z,23.60
2019-06-27T08:49:26.299Z,23.60
2019-06-27T08:53:35.113Z,23.70
2019-06-27T08:57:43.939Z,23.80
2019-06-27T09:02:07.304Z,23.80
2019-06-27T09:06:03.452Z,23.80
2019-06-27T09:10:13.022Z,24.10
2019-06-27T09:14:23.063Z,24.40
2019-06-27T09:18:32.565Z,24.70
2019-06-27T09:22:41.512Z,24.70
2019-06-27T09:26:50.407Z,25.00
2019-06-27T09:30:59.386Z,25.50
2019-06-27T09:35:08.854Z,25.40
2019-06-27T09:39:17.866Z,25.50
2019-06-27T09:43:26.757Z,25.60
2019-06-27T09:47:35.659Z,25.70
2019-06-27T09:51:44.638Z,26.10
2019-06-27T09:55:53.585Z,26.10
2019-06-27T10:00:02.527Z,26.20
2019-06-27T10:04:11.673Z,26.40
2019-06-27T10:08:20.481Z,26.30
2019-06-27T10:12:41.786Z,26.30
2019-06-27T10:16:40.082Z,26.60
2019-06-27T10:20:48.931Z,27.10
2019-06-27T10:24:57.817Z,27.20
2019-06-27T10:29:06.783Z,27.30
2019-06-27T10:33:15.757Z,27.30
2019-06-27T10:37:24.663Z,27.30
2019-06-27T10:41:33.479Z,27.50
2019-06-27T10:45:42.437Z,27.90
2019-06-27T10:49:51.329Z,28.10
2019-06-27T10:54:00.234Z,28.10
2019-06-27T10:58:09.094Z,28.10
2019-06-27T11:02:17.887Z,28.50
2019-06-27T11:06:26.784Z,28.40
2019-06-27T11:10:35.933Z,28.40
2019-06-27T11:14:58.226Z,28.10
2019-06-27T11:18:55.336Z,28.30
2019-06-27T11:23:04.463Z,28.30
2019-06-27T11:27:13.433Z,28.30
2019-06-27T11:31:22.339Z,28.70
2019-06-27T11:35:31.162Z,28.90
2019-06-27T11:39:39.990Z,29.30
2019-06-27T11:43:48.872Z,29.80
2019-06-27T11:47:57.959Z,29.30
2019-06-27T11:52:06.992Z,29.20
2019-06-27T11:56:15.857Z,29.30
2019-06-27T12:00:24.862Z,29.70
2019-06-27T12:04:33.757Z,29.70
2019-06-27T12:08:42.571Z,29.40
2019-06-27T12:12:51.489Z,29.70
2019-06-27T12:17:00.394Z,29.70
2019-06-27T12:21:09.361Z,29.60
2019-06-27T12:25:18.458Z,29.90
2019-06-27T12:29:27.337Z,29.80
2019-06-27T12:33:36.217Z,30.20
2019-06-27T12:37:45.307Z,30.20
2019-06-27T12:41:54.278Z,30.40
2019-06-27T12:46:03.756Z,30.70
2019-06-27T12:50:13.397Z,31.20
2019-06-27T12:54:22.265Z,31.00
2019-06-27T12:58:31.749Z,30.50
2019-06-27T13:02:40.628Z,30.50
2019-06-27T13:06:49.523Z,30.40
2019-06-27T13:10:58.334Z,30.40
2019-06-27T13:15:07.803Z,30.70
2019-06-27T13:19:16.844Z,30.60
2019-06-27T13:23:25.658Z,30.80
2019-06-27T13:27:34.550Z,30.90
2019-06-27T13:31:43.432Z,30.80
2019-06-27T13:35:52.239Z,30.70
2019-06-27T13:40:04.598Z,30.90
2019-06-27T13:44:12.053Z,30.80
2019-06-27T13:48:21.030Z,30.70
2019-06-27T13:52:29.910Z,30.80
2019-06-27T13:56:38.890Z,30.50
2019-06-27T14:00:48.031Z,30.40
2019-06-27T14:04:57.897Z,30.60
2019-06-27T14:09:07.001Z,30.80
2019-06-27T14:13:15.997Z,30.50
2019-06-27T14:17:24.831Z,30.70
2019-06-27T14:21:33.630Z,30.60
2019-06-27T14:25:42.691Z,30.70
2019-06-27T14:29:51.526Z,31.10
2019-06-27T14:34:00.333Z,30.80
2019-06-27T14:38:09.216Z,30.50
2019-06-27T14:42:18.343Z,30.40
2019-06-27T14:46:27.451Z,30.50
2019-06-27T14:50:36.813Z,30.70
2019-06-27T14:54:47.359Z,30.50
2019-06-27T14:58:56.390Z,30.50
2019-06-27T15:03:05.366Z,30.70
2019-06-27T15:07:14.269Z,30.70
2019-06-27T15:11:23.241Z,30.40
2019-06-27T15:15:32.123Z,30.40
2019-06-27T15:19:41.036Z,30.20
2019-06-27T15:23:50.011Z,30.00
2019-06-27T15:27:59.024Z,29.90
2019-06-27T15:32:08.051Z,29.70
2019-06-27T15:36:16.995Z,30.10
2019-06-27T15:40:26.235Z,30.40
2019-06-27T15:44:35.269Z,30.30
2019-06-27T15:48:44.191Z,30.00
2019-06-27T15:52:53.023Z,30.00
2019-06-27T15:57:02.488Z,30.20
2019-06-27T16:01:11.543Z,30.10
2019-06-27T16:05:20.518Z,30.00
2019-06-27T16:09:29.639Z,30.20
2019-06-27T16:13:38.549Z,30.10
2019-06-27T16:17:47.372Z,30.10
2019-06-27T16:21:56.382Z,30.10
2019-06-27T16:26:05.371Z,29.70
2019-06-27T16:30:15.374Z,29.80
2019-06-27T16:34:24.289Z,29.40
2019-06-27T16:38:33.086Z,29.30
2019-06-27T16:42:41.980Z,29.50
2019-06-27T16:46:50.866Z,29.20
2019-06-27T16:50:59.673Z,29.20
2019-06-27T16:55:09.121Z,29.00
2019-06-27T16:59:17.931Z,28.80
2019-06-27T17:03:26.734Z,29.00
2019-06-27T17:07:35.989Z,29.30
2019-06-27T17:11:44.913Z,29.90
2019-06-27T17:15:53.863Z,31.30
2019-06-27T17:20:02.801Z,33.30
2019-06-27T17:24:11.606Z,34.90
2019-06-27T17:28:20.424Z,35.60
2019-06-27T17:32:29.496Z,36.20
2019-06-27T17:36:38.460Z,36.80
2019-06-27T17:40:47.254Z,37.40
2019-06-27T17:44:56.133Z,38.30
2019-06-27T17:49:05.094Z,38.60
2019-06-27T17:53:13.981Z,38.80
2019-06-27T17:57:22.970Z,39.10
2019-06-27T18:01:32.283Z,39.50
2019-06-27T18:05:41.083Z,39.40
2019-06-27T18:09:50.250Z,39.30
2019-06-27T18:13:59.054Z,39.10
2019-06-27T18:18:07.925Z,39.00
2019-06-27T18:22:16.821Z,38.90
2019-06-27T18:26:25.707Z,38.90
2019-06-27T18:30:35.161Z,38.80
2019-06-27T18:34:43.978Z,38.70
2019-06-27T18:38:52.883Z,38.50
2019-06-27T18:43:01.704Z,36.90
2019-06-27T18:47:10.662Z,33.50
2019-06-27T18:51:19.593Z,30.90
2019-06-27T18:55:28.899Z,29.00
2019-06-27T18:59:37.790Z,27.80
2019-06-27T19:03:46.606Z,26.80
2019-06-27T19:07:55.531Z,26.10
2019-06-27T19:12:04.482Z,25.40
2019-06-27T19:16:13.362Z,24.90
2019-06-27T19:20:27.766Z,24.50
2019-06-27T19:24:41.950Z,24.10
2019-06-27T19:28:51.919Z,23.70
2019-06-27T19:33:00.820Z,23.40
2019-06-27T19:37:09.702Z,23.10
2019-06-27T19:41:18.593Z,22.80
2019-06-27T19:45:27.485Z,22.60
2019-06-27T19:49:36.402Z,22.40
2019-06-27T19:53:45.233Z,22.20
2019-06-27T19:57:54.117Z,22.00
2019-06-27T20:02:03.094Z,21.70
2019-06-27T20:06:12.082Z,21.50
2019-06-27T20:10:21.524Z,21.30
2019-06-27T20:14:30.513Z,21.00
2019-06-27T20:18:39.720Z,20.80
2019-06-27T20:22:48.526Z,20.70
2019-06-27T20:26:57.518Z,20.50
2019-06-27T20:31:06.399Z,20.40
2019-06-27T20:35:15.797Z,20.20
2019-06-27T20:39:24.913Z,20.00
2019-06-27T20:43:34.374Z,19.80
2019-06-27T20:47:43.251Z,19.70
2019-06-27T20:51:52.979Z,19.50
2019-06-27T20:56:02.057Z,19.40
2019-06-27T21:00:11.555Z,19.30
2019-06-27T21:04:20.436Z,19.20
2019-06-27T21:08:29.275Z,19.10
2019-06-27T21:12:38.274Z,19.00
2019-06-27T21:16:47.102Z,18.90
2019-06-27T21:20:55.946Z,18.80
2019-06-27T21:25:05.251Z,18.60
2019-06-27T21:29:16.985Z,18.50
2019-06-27T21:33:24.661Z,18.40
2019-06-27T21:37:33.485Z,18.30
2019-06-27T21:41:42.402Z,18.20
2019-06-27T21:45:51.235Z,18.10
2019-06-27T21:50:00.050Z,18.00
2019-06-27T21:54:09.179Z,17.90
2019-06-27T21:58:18.059Z,17.70
2019-06-27T22:02:26.954Z,17.60
2019-06-27T22:06:35.841Z,17.50
2019-06-27T22:10:44.886Z,17.40
2019-06-27T22:14:53.845Z,17.30
2019-06-27T22:19:03.062Z,17.20
2019-06-27T22:23:11.951Z,17.10
2019-06-27T22:27:20.914Z,17.00
2019-06-27T22:31:29.882Z,16.90
2019-06-27T22:35:38.715Z,16.90
2019-06-27T22:40:05.268Z,16.80
2019-06-27T22:44:32.070Z,16.70
2019-06-27T22:48:40.067Z,16.60
2019-06-27T22:53:11.050Z,16.50
2019-06-27T22:57:19.897Z,16.50
2019-06-27T23:01:28.845Z,16.40
2019-06-27T23:05:37.735Z,16.40
2019-06-27T23:09:56.557Z,16.30
2019-06-27T23:13:57.195Z,16.20
2019-06-27T23:18:06.094Z,16.10
2019-06-27T23:22:14.986Z,16.00
2019-06-27T23:26:24.116Z,15.90
2019-06-27T23:30:33.214Z,15.70
2019-06-27T23:34:42.349Z,15.60
2019-06-27T23:38:51.177Z,15.50
2019-06-27T23:43:00.050Z,15.50
2019-06-27T23:47:09.165Z,15.50
2019-06-27T23:51:18.308Z,15.40
2019-06-27T23:55:27.253Z,15.30
2019-06-27T23:59:36.217Z,15.30
